Terminal Aerodrome Forecast
Issued by NWS

Home | Current Version | Previous Version | Text Only | Print | Product List | Glossary On
Versions: 1 2 3 4 5 6 7 8 9 10 11 12 13 14 15 16 17 18 19
000
FTUS46 KLOX 301000 AAB
TAFSBP
TAF AMD
KSBP 301052Z 3011/3106 31005KT 1SM BR OVC003
     FM301300 VRB03KT P6SM OVC004
     FM301700 31007KT P6SM SKC
     FM302000 30015G20KT P6SM SKC
     FM310300 30008KT P6SM SKC=

USA.gov is the U.S. government's official web portal to all federal, state and local government web resources and services.